METAR AND TAF INFORMATION
METAR FOR LFBC
ADDS - METARS form results

(0358 UTC 07 October 2022)
Data provider http://aviationweather.gov/metar/data/
 
METAR text: LFBC 070330Z AUTO 03003KT 9000 NSC 12/12 Q1024 TEMPO 3000 BR
Conditions at: LFBC (CAZAUX POND (FAF, FR) observed 0330 UTC 07 October 2022
Temperature: 12.0°C (54°F)
Dewpoint: 12.0°C (54°F) [RH = 100%]
Pressure (altimeter): 30.24 inches Hg (1024.0 mb)
Winds: from the NNE (30 degrees) at 3 MPH (3 knots; 1.5 m/s)
Visibility: 6 miles ( 9 km)
Ceiling: at least 12,000 feet AGL
Clouds: sky clear below 12,000 feet AGL
Weather: no significant weather observed at this time

METAR text: LFBC 070300Z AUTO 01003KT 8000 NSC 12/12 Q1024 TEMPO 3000 BR
Conditions at: LFBC (CAZAUX POND (FAF, FR) observed 0300 UTC 07 October 2022
Temperature: 12.0°C (54°F)
Dewpoint: 12.0°C (54°F) [RH = 100%]
Pressure (altimeter): 30.24 inches Hg (1024.0 mb)
Winds: from the N (10 degrees) at 3 MPH (3 knots; 1.5 m/s)
Visibility: 5 miles ( 8 km)
Ceiling: at least 12,000 feet AGL
Clouds: sky clear below 12,000 feet AGL
Weather: no significant weather observed at this time

Forecast for: LFBC (CAZAUX POND (FAF, FR)
Text: TAF LFBC 070200Z 0703/0803 02003KT CAVOK
Forecast period: 0300 UTC 07 October 2022 to 0300 UTC 08 October 2022
Forecast type: FROM: standard forecast or significant change
Winds: from the NNE (20 degrees) at 3 MPH (3 knots; 1.5 m/s)
Visibility: 6 or more miles (10+ km)
Ceiling: unknown
Clouds: missing
Weather: NSW  (no significant weather)
Text: PROB40
Forecast period: 0300 to 0700 UTC 07 October 2022
Forecast type: TEMPORARY: The following changes expected for less than half the time period
Visibility: 1.86 miles (2.99 km)
Ceiling: unknown
Clouds: missing
Weather: BR  (mist)

 AIRPORT MAP

 RUNWAY INFORMATION
Runway 06 Runway length 7900 ft Runway width 148 ft
Runway elevation 74 ft Runway displaced threshold 0 ft Runway heading 57
Runway 24 Runway length 7900 ft Runway width 148 ft
Runway elevation 83 ft Runway displaced threshold 0 ft Runway heading 237

 AIRPORT FREQUENCIES
Type APP Name APP Frequency 142.45 MHZ
Type TWR Name TWR Frequency 118.4 MHZ

 AIRPORT NEAR NAVIGATION AIDS
Type TACAN Name Cazaux Frequency 110800 KHZ
Type NDB Name Cazaux Frequency 382 KHZ



Powered by Virtual Airlines Manager [v2.6.2]